Langlois, OR (97450)

5:01 PM PDT on September 02, 2015 (GMT -0700)
Port Orford RV Village | | Change Station
CLOSE
Current Station
Personal Weather Station
Location: Port Orford, OR
Elevation: 47 ft
Nearby Weather Stations

Elev 47 ft 42.76 °N, 124.49 °W | Updated 6 seconds ago

Clear
Clear
69.3 °F
Feels Like 69.3 °F
N
3.0
Wind Variable Wind from WNW
Gusts 4.0 mph

Today
High -- | Low -- °F
--% Chance of Precip.
Yesterday
High -- | Low -- °F
Precip. -- in
6:43 AM 7:50 PM
Waning Gibbous, 76% visible
Pressure 30.01 in
Visibility 10.0 miles
Clouds Mostly Cloudy 2000 ft
Overcast 2700 ft
Dew Point 57 °F
Humidity 66%
Rainfall 0.07 in
Snow Depth Not available.
UV 1 out of 12
Pollen 5.60 out of 12
Air Quality Not available.
Flu Activity Not available.
METAR KOTH 022355Z 34006KT 10SM BKN020 OVC027 19/14 A3001 RMK AO1 10200 20190 52007
Pressure 30.01 in
Visibility 10.0 miles
Clouds Mostly Cloudy 2000 ft
Overcast 2700 ft
Dew Point 57 °F
Humidity 66%
Rainfall 0.07 in
Snow Depth Not available.
UV 1 out of 12
Pollen 5.60 out of 12
Air Quality Not available.
Flu Activity Not available.
METAR KOTH 022355Z 34006KT 10SM BKN020 OVC027 19/14 A3001 RMK AO1 10200 20190 52007

10-Day Weather Forecast

×

Almanac

Astronomy

Sep. 02, 2015 Rise Set
Actual Time
Civil Twilight
Nautical Twilight
Astronomical Twilight
Moon
Length of Visible Light
Length of Day
Tomorrow will be .
, % of the Moon is Illuminated

Today's Extremes

State Highs State Lows

Community

WunderPhotos

Upload Photos

1,851,846 photos uploaded!

WunderBlogs® & News

Nearby

Air Quality

  Air Quality AQ Index Pollutant
Not available.

Snow Depth

Station Depth Elevation

Earthquake Activity

City Distance Mag. Time & Date
Minimum magnitude displayed is 2.5.

Coastal Water Temperatures

Place Temperature

Stations

Nearby Weather Stations

Station Location Temp. Windchill Dew Point Humidity Wind Precip. Elev Updated Type